Time;durP1;ratioP1;P1;durP2;ratioP2;P2;SDS_P1;SDS_P2;PMS_P1;PMS_P2;Temp;Humidity;BMP_temperature;BMP_pressure;BME280_temperature;BME280_humidity;BME280_pressure;Samples;Min_cycle;Max_cycle;Signal;HPM_P1;HPM_P2
2021/11/02 00:02:44;;;;;;;1.17;0.90;;;12.00;45.80;;;;;;10392934;28;20240;-72
2021/11/02 00:07:48;;;;;;;1.17;1.07;;;12.00;45.60;;;;;;10398679;28;20224;-72
2021/11/02 00:12:52;;;;;;;1.10;1.00;;;12.00;45.60;;;;;;10404237;28;20305;-72
2021/11/02 00:17:59;;;;;;;2.03;1.10;;;12.00;45.90;;;;;;10404688;28;21006;-72
2021/11/02 00:23:03;;;;;;;1.40;1.30;;;12.10;45.80;;;;;;10398600;28;20218;-72
2021/11/02 00:28:08;;;;;;;1.30;1.20;;;12.10;45.80;;;;;;10405300;28;20235;-72
2021/11/02 00:33:11;;;;;;;1.53;1.20;;;12.10;46.00;;;;;;10397350;28;20223;-71
2021/11/02 00:38:14;;;;;;;1.10;1.10;;;12.10;45.80;;;;;;10393484;28;20596;-72
2021/11/02 00:43:19;;;;;;;1.40;1.30;;;12.20;45.70;;;;;;10387087;28;20726;-71
2021/11/02 00:48:25;;;;;;;1.87;1.60;;;12.20;45.90;;;;;;10401808;28;20242;-72
2021/11/02 00:53:29;;;;;;;2.17;1.70;;;12.20;46.40;;;;;;10398151;28;20573;-71
2021/11/02 00:58:34;;;;;;;1.90;1.80;;;12.20;45.60;;;;;;10405418;28;20596;-72
2021/11/02 01:03:37;;;;;;;2.10;1.90;;;12.20;45.90;;;;;;10399502;28;22879;-72
2021/11/02 01:08:41;;;;;;;1.97;1.70;;;12.10;45.70;;;;;;10398599;28;20237;-72
2021/11/02 01:13:45;;;;;;;2.10;2.00;;;12.10;45.70;;;;;;10397902;28;20217;-71
2021/11/02 01:18:49;;;;;;;2.70;2.10;;;12.10;46.10;;;;;;10403978;28;20228;-72
2021/11/02 01:23:52;;;;;;;2.57;2.37;;;12.10;45.90;;;;;;10392088;28;20236;-72
2021/11/02 01:28:57;;;;;;;2.40;2.20;;;12.10;45.90;;;;;;10404885;28;20228;-72
2021/11/02 01:34:00;;;;;;;2.50;2.10;;;12.10;46.00;;;;;;10393369;28;20221;-71
2021/11/02 01:39:05;;;;;;;2.40;2.20;;;12.10;45.70;;;;;;10390812;28;20225;-71
2021/11/02 01:44:10;;;;;;;2.50;2.20;;;12.10;45.90;;;;;;10391107;28;20229;-71
2021/11/02 01:49:13;;;;;;;2.10;2.00;;;12.00;46.10;;;;;;10388061;28;20252;-71
2021/11/02 01:54:18;;;;;;;2.30;2.20;;;12.00;45.90;;;;;;10393595;28;20229;-71
2021/11/02 01:59:25;;;;;;;2.30;2.10;;;12.00;46.00;;;;;;10394108;28;20230;-71
2021/11/02 02:04:41;;;;;;;2.27;2.10;;;12.00;46.20;;;;;;10387330;28;20233;-71
2021/11/02 02:09:49;;;;;;;2.03;1.90;;;12.00;46.60;;;;;;10398321;28;20233;-72
2021/11/02 02:14:59;;;;;;;2.20;2.10;;;11.90;46.30;;;;;;10402808;28;20614;-71
2021/11/02 02:20:07;;;;;;;2.77;2.40;;;11.90;46.50;;;;;;10403736;28;20231;-70
2021/11/02 02:25:31;;;;;;;3.20;2.93;;;11.90;46.40;;;;;;10394324;28;20230;-71
2021/11/02 02:30:40;;;;;;;3.10;2.90;;;11.80;46.70;;;;;;10405521;28;20235;-71
2021/11/02 02:35:45;;;;;;;3.10;2.90;;;11.80;46.70;;;;;;10385984;28;20226;-71
2021/11/02 02:40:50;;;;;;;3.73;3.27;;;11.80;46.40;;;;;;10399700;28;20237;-71
2021/11/02 02:45:57;;;;;;;3.63;3.43;;;11.80;46.40;;;;;;10383305;28;20230;-71
2021/11/02 02:51:01;;;;;;;4.30;4.00;;;11.90;46.60;;;;;;10391596;28;20229;-71
2021/11/02 02:56:08;;;;;;;4.47;4.17;;;11.90;46.30;;;;;;10392344;28;20225;-71
2021/11/02 03:01:15;;;;;;;4.37;4.00;;;11.90;46.60;;;;;;10392761;28;20233;-71
2021/11/02 03:06:25;;;;;;;4.40;4.10;;;11.90;46.40;;;;;;10396386;28;20234;-71
2021/11/02 03:11:31;;;;;;;4.97;4.60;;;11.90;46.30;;;;;;10391288;28;20221;-71
2021/11/02 03:16:45;;;;;;;5.20;4.80;;;12.00;46.30;;;;;;10381443;28;20244;-71
2021/11/02 03:44:04;;;;;;;6.30;5.73;;;11.70;46.30;;;;;;10390858;28;20269;-71
2021/11/02 03:49:13;;;;;;;5.93;5.47;;;11.70;46.20;;;;;;10388240;28;20253;-71
2021/11/02 04:27:08;;;;;;;7.13;6.57;;;11.60;45.90;;;;;;10390067;28;20233;-71
2021/11/02 05:47:33;;;;;;;7.10;6.50;;;11.30;45.40;;;;;;10396533;28;20233;-71
2021/11/02 05:58:05;;;;;;;9.83;9.03;;;11.30;45.30;;;;;;10395963;28;20213;-71
2021/11/02 06:03:21;;;;;;;9.07;8.37;;;11.40;45.50;;;;;;10409397;28;20220;-71
2021/11/02 06:08:52;;;;;;;10.80;9.80;;;11.30;45.30;;;;;;10391272;28;20244;-71
2021/11/02 06:30:11;;;;;;;9.40;8.63;;;11.20;45.60;;;;;;10390261;28;20232;-71
2021/11/02 06:35:21;;;;;;;11.00;10.10;;;11.20;45.80;;;;;;10398856;28;20594;-71
2021/11/02 06:46:18;;;;;;;7.67;7.07;;;11.20;45.80;;;;;;10384113;28;20731;-71
2021/11/02 06:57:08;;;;;;;6.93;6.37;;;11.20;46.00;;;;;;10367006;28;20255;-71
2021/11/02 07:18:44;;;;;;;6.53;5.97;;;11.10;46.20;;;;;;10389748;28;20263;-71
2021/11/02 07:23:55;;;;;;;5.63;5.10;;;11.10;46.20;;;;;;10393790;28;20613;-71
2021/11/02 07:29:33;;;;;;;4.90;4.47;;;11.10;46.20;;;;;;10392063;28;20236;-71
2021/11/02 08:45:07;;;;;;;4.20;3.90;;;11.40;47.10;;;;;;10357776;28;20230;-71
2021/11/02 08:50:13;;;;;;;4.60;4.20;;;11.50;47.20;;;;;;10363159;28;20225;-70
2021/11/02 08:55:18;;;;;;;5.20;4.70;;;11.60;47.40;;;;;;10355069;28;20237;-70
2021/11/02 09:00:22;;;;;;;4.23;3.93;;;11.70;47.40;;;;;;10350598;28;20241;-70
2021/11/02 09:05:28;;;;;;;4.33;4.03;;;11.80;47.40;;;;;;10354193;28;20233;-70
2021/11/02 09:10:33;;;;;;;4.47;4.07;;;11.90;47.50;;;;;;10356880;28;20222;-67
2021/11/02 09:15:38;;;;;;;4.17;3.70;;;12.00;47.30;;;;;;10356055;28;20237;-68
2021/11/02 09:20:41;;;;;;;4.80;4.40;;;12.10;47.10;;;;;;10365079;28;20721;-67
2021/11/02 09:25:46;;;;;;;3.90;3.60;;;12.20;47.20;;;;;;10359676;28;20253;-67
2021/11/02 09:30:50;;;;;;;3.80;3.60;;;12.20;46.60;;;;;;10356471;28;20231;-67
2021/11/02 09:35:59;;;;;;;4.10;3.70;;;12.30;46.50;;;;;;10346963;28;20336;-67
2021/11/02 09:41:48;;;;;;;5.37;4.87;;;12.30;46.40;;;;;;10350224;28;20237;-68
2021/11/02 09:47:39;;;;;;;6.33;5.83;;;12.40;46.40;;;;;;10371807;28;20230;-67
2021/11/02 09:53:03;;;;;;;5.97;5.47;;;12.40;46.50;;;;;;10288164;28;20217;-67
2021/11/02 09:58:55;;;;;;;8.37;6.03;;;12.50;46.80;;;;;;10362482;28;20618;-67
2021/11/02 10:04:41;;;;;;;5.33;4.77;;;12.60;46.20;;;;;;10352913;28;20218;-67
2021/11/02 10:09:56;;;;;;;4.93;2.80;;;12.70;46.20;;;;;;10352149;28;20233;-67
2021/11/02 10:15:09;;;;;;;3.03;2.50;;;12.80;45.80;;;;;;10358382;28;20230;-67
2021/11/02 10:20:30;;;;;;;3.50;2.83;;;12.90;45.50;;;;;;10356662;28;20229;-67
2021/11/02 10:26:25;;;;;;;2.67;2.47;;;13.10;46.20;;;;;;10363419;28;20226;-67
2021/11/02 10:31:34;;;;;;;2.40;2.20;;;13.20;46.20;;;;;;10353153;28;20256;-67
2021/11/02 10:36:52;;;;;;;1.97;1.80;;;13.40;45.60;;;;;;10353387;28;20324;-67
2021/11/02 10:42:16;;;;;;;2.30;2.10;;;13.50;45.70;;;;;;10357731;28;20226;-67
2021/11/02 10:47:21;;;;;;;2.70;2.50;;;13.70;45.30;;;;;;10356596;28;20242;-67
2021/11/02 10:52:28;;;;;;;2.53;2.33;;;13.80;45.90;;;;;;10354094;28;20234;-67
2021/11/02 10:57:47;;;;;;;2.13;2.00;;;14.00;45.30;;;;;;10347960;28;20240;-67
2021/11/02 11:02:54;;;;;;;2.40;2.20;;;14.10;44.80;;;;;;10359562;28;20225;-67
2021/11/02 11:08:01;;;;;;;4.83;3.53;;;14.20;45.00;;;;;;10361356;28;20234;-67
2021/11/02 11:13:10;;;;;;;4.70;3.27;;;14.30;44.90;;;;;;10357281;28;20683;-67
2021/11/02 11:18:23;;;;;;;3.27;1.80;;;14.40;44.30;;;;;;10358571;28;20229;-67
2021/11/02 11:23:30;;;;;;;2.47;1.80;;;14.50;43.90;;;;;;10360995;28;20222;-67
2021/11/02 11:28:36;;;;;;;2.93;1.57;;;14.60;44.00;;;;;;10346734;28;20230;-69
2021/11/02 11:33:42;;;;;;;1.70;1.60;;;14.70;44.10;;;;;;10351795;28;20230;-67
2021/11/02 11:38:48;;;;;;;2.63;1.50;;;14.70;43.30;;;;;;10348041;28;20234;-71
2021/11/02 11:43:55;;;;;;;1.40;1.30;;;14.70;43.30;;;;;;10352041;28;20230;-71
2021/11/02 11:49:00;;;;;;;3.63;1.30;;;14.70;43.50;;;;;;10351039;28;20230;-71
2021/11/02 11:54:12;;;;;;;1.40;1.27;;;14.70;44.10;;;;;;10355110;28;20221;-71
2021/11/02 11:59:20;;;;;;;1.30;0.97;;;14.90;42.90;;;;;;10365953;28;20264;-71
2021/11/02 12:04:31;;;;;;;6.83;5.67;;;15.00;42.80;;;;;;10355855;28;20673;-71
2021/11/02 12:09:42;;;;;;;3.90;2.97;;;15.00;42.90;;;;;;10351283;28;20380;-71
2021/11/02 12:14:52;;;;;;;2.67;1.80;;;15.00;42.90;;;;;;10363921;28;20210;-70
2021/11/02 12:20:09;;;;;;;4.63;1.90;;;15.00;42.50;;;;;;10356444;28;20620;-71
2021/11/02 12:25:21;;;;;;;5.43;2.70;;;15.00;42.50;;;;;;10363446;28;20226;-70
2021/11/02 12:30:25;;;;;;;1.57;1.40;;;15.00;42.80;;;;;;10369816;28;20697;-70
2021/11/02 12:35:41;;;;;;;2.70;1.27;;;15.00;43.10;;;;;;10357481;28;21360;-70
2021/11/02 12:40:46;;;;;;;2.27;1.50;;;14.90;43.20;;;;;;10368273;28;20600;-70
2021/11/02 12:45:55;;;;;;;0.87;0.87;;;14.70;42.40;;;;;;10369064;28;20236;-70
2021/11/02 12:51:00;;;;;;;2.40;0.90;;;14.30;42.60;;;;;;10357128;28;20231;-70
2021/11/02 12:56:16;;;;;;;1.33;0.87;;;14.10;43.10;;;;;;10354527;28;20225;-70
2021/11/02 13:01:33;;;;;;;1.00;0.90;;;13.90;43.20;;;;;;10362499;28;20241;-70
2021/11/02 13:06:40;;;;;;;1.67;1.57;;;13.70;43.20;;;;;;10359356;28;20231;-71
2021/11/02 13:11:45;;;;;;;1.50;0.90;;;13.60;43.60;;;;;;10364205;28;20226;-71
2021/11/02 13:17:00;;;;;;;2.27;0.90;;;13.50;44.00;;;;;;10355958;28;20228;-71
2021/11/02 13:22:14;;;;;;;2.20;1.13;;;13.50;44.00;;;;;;10359955;28;20599;-71
2021/11/02 13:27:30;;;;;;;2.77;2.50;;;13.50;44.30;;;;;;10348988;28;20246;-72
2021/11/02 13:32:33;;;;;;;2.27;1.60;;;13.60;44.60;;;;;;10352417;28;20226;-71
2021/11/02 13:37:36;;;;;;;2.60;1.90;;;13.60;44.50;;;;;;10365658;28;20222;-71
2021/11/02 13:42:47;;;;;;;2.03;0.97;;;13.60;44.30;;;;;;10354834;28;20226;-72
2021/11/02 13:47:51;;;;;;;2.03;1.00;;;13.50;44.00;;;;;;10364730;28;20602;-73
2021/11/02 13:52:54;;;;;;;1.57;0.97;;;13.50;44.70;;;;;;10355377;28;20225;-71
2021/11/02 13:57:58;;;;;;;1.47;0.97;;;13.50;44.90;;;;;;10350626;28;20717;-71
2021/11/02 14:03:06;;;;;;;1.33;0.93;;;13.40;44.70;;;;;;10358291;28;21003;-71
2021/11/02 14:08:09;;;;;;;1.17;0.90;;;13.50;44.80;;;;;;10366674;28;20702;-71
2021/11/02 14:13:15;;;;;;;1.10;1.00;;;13.50;44.70;;;;;;10348163;28;20923;-71
2021/11/02 14:18:20;;;;;;;2.40;0.90;;;13.40;44.60;;;;;;10347914;28;20234;-71
2021/11/02 14:23:34;;;;;;;1.90;1.80;;;13.40;44.70;;;;;;10349419;28;20226;-71
2021/11/02 14:28:50;;;;;;;1.43;1.33;;;13.30;44.60;;;;;;10342889;28;20238;-71
2021/11/02 14:33:53;;;;;;;1.07;0.80;;;13.30;44.80;;;;;;10343874;28;20230;-71
2021/11/02 14:38:56;;;;;;;0.70;0.70;;;13.30;44.90;;;;;;10359631;28;20230;-70
2021/11/02 14:44:25;;;;;;;0.80;0.80;;;13.40;45.10;;;;;;10349090;28;20230;-71
2021/11/02 14:49:41;;;;;;;1.20;1.10;;;13.40;44.60;;;;;;10353603;28;20884;-70
2021/11/02 14:54:46;;;;;;;1.33;1.07;;;13.60;44.70;;;;;;10357038;28;20221;-70
2021/11/02 14:59:55;;;;;;;0.90;0.80;;;13.60;44.50;;;;;;10370198;28;20307;-71
2021/11/02 15:05:04;;;;;;;1.07;0.90;;;13.70;44.20;;;;;;10356309;28;20218;-71
2021/11/02 15:10:10;;;;;;;1.33;1.23;;;13.80;44.40;;;;;;10355003;28;20234;-70
2021/11/02 15:15:15;;;;;;;1.00;1.00;;;13.80;43.90;;;;;;10363021;28;20309;-70
2021/11/02 15:20:22;;;;;;;1.73;1.50;;;13.80;43.90;;;;;;10346750;28;20706;-71
2021/11/02 15:25:26;;;;;;;1.03;1.00;;;13.80;43.30;;;;;;10351765;28;20711;-70
2021/11/02 15:30:31;;;;;;;0.60;0.60;;;13.80;41.80;;;;;;10348016;28;20241;-70
2021/11/02 15:35:35;;;;;;;0.60;0.60;;;13.70;41.50;;;;;;10343690;28;20313;-71
2021/11/02 15:40:39;;;;;;;0.50;0.50;;;13.60;41.70;;;;;;10359494;28;20246;-70
2021/11/02 15:45:50;;;;;;;2.13;0.70;;;13.60;41.50;;;;;;10347381;28;20219;-70
2021/11/02 15:50:56;;;;;;;1.20;1.20;;;13.50;40.70;;;;;;10357882;28;20226;-70
2021/11/02 15:56:00;;;;;;;1.47;1.37;;;13.50;41.20;;;;;;10353516;28;20640;-70
2021/11/02 16:01:05;;;;;;;1.60;1.50;;;13.50;41.70;;;;;;10353326;28;20233;-70
2021/11/02 16:06:17;;;;;;;1.93;1.83;;;13.50;41.70;;;;;;10360938;28;20697;-70
2021/11/02 16:11:20;;;;;;;2.50;2.30;;;13.40;41.90;;;;;;10358083;28;20233;-70
2021/11/02 16:16:25;;;;;;;2.80;2.60;;;13.40;42.00;;;;;;10356829;28;20232;-70
2021/11/02 16:21:32;;;;;;;4.37;4.07;;;13.40;41.80;;;;;;10387881;28;20256;-71
2021/11/02 16:26:40;;;;;;;5.77;5.27;;;13.30;41.80;;;;;;10393982;28;20229;-70
2021/11/02 16:31:46;;;;;;;6.23;5.63;;;13.20;41.50;;;;;;10389699;28;20236;-71
2021/11/02 16:36:50;;;;;;;6.80;6.20;;;13.20;41.80;;;;;;10391080;28;20589;-70
2021/11/02 16:41:55;;;;;;;3.40;3.10;;;13.20;42.10;;;;;;10391375;28;20234;-71
2021/11/02 16:47:07;;;;;;;3.77;3.10;;;13.10;42.10;;;;;;10405064;28;20371;-71
2021/11/02 16:52:13;;;;;;;7.90;6.70;;;13.10;41.30;;;;;;10400110;28;20239;-70
2021/11/02 16:57:25;;;;;;;7.77;7.07;;;13.00;41.50;;;;;;10393242;28;20232;-70
2021/11/02 17:02:32;;;;;;;7.40;6.70;;;12.90;41.00;;;;;;10398860;28;20603;-71
2021/11/02 17:07:38;;;;;;;15.40;12.40;;;12.80;41.50;;;;;;10387038;28;20225;-70
2021/11/02 17:12:42;;;;;;;5.67;5.13;;;12.60;41.80;;;;;;10386473;28;20230;-71
2021/11/02 17:17:46;;;;;;;2.70;2.50;;;12.50;42.10;;;;;;10392767;28;20804;-72
2021/11/02 17:22:51;;;;;;;3.10;2.70;;;12.30;42.00;;;;;;10398426;28;20269;-72
2021/11/02 17:27:54;;;;;;;18.90;17.00;;;12.30;42.00;;;;;;10404396;28;20600;-72
2021/11/02 17:33:01;;;;;;;4.80;4.37;;;12.20;42.30;;;;;;10402303;28;20222;-72
2021/11/02 17:38:05;;;;;;;4.43;3.20;;;12.10;42.60;;;;;;10394529;28;20226;-72
2021/11/02 17:43:09;;;;;;;3.27;3.07;;;12.00;42.70;;;;;;10407801;28;20604;-72
2021/11/02 17:48:15;;;;;;;4.87;4.47;;;12.00;43.20;;;;;;10399225;28;20675;-72
2021/11/02 17:53:19;;;;;;;4.03;3.73;;;12.00;43.40;;;;;;10396408;28;20597;-72
2021/11/02 17:58:23;;;;;;;3.87;3.07;;;12.00;43.20;;;;;;10401759;28;20230;-72
2021/11/02 18:03:28;;;;;;;3.87;3.57;;;11.90;43.20;;;;;;10392444;28;20589;-72
2021/11/02 18:08:32;;;;;;;4.20;3.90;;;11.90;43.50;;;;;;10390350;28;20257;-72
2021/11/02 18:13:36;;;;;;;3.30;3.00;;;11.80;43.40;;;;;;10391230;28;20226;-72
2021/11/02 18:18:42;;;;;;;4.57;4.17;;;11.70;43.50;;;;;;10392418;28;20266;-72
2021/11/02 18:23:48;;;;;;;3.93;3.03;;;11.70;43.60;;;;;;10387761;28;20218;-72
2021/11/02 18:28:52;;;;;;;4.07;3.03;;;11.60;43.40;;;;;;10391403;28;20244;-72
2021/11/02 18:33:57;;;;;;;9.97;9.07;;;11.60;43.50;;;;;;10388955;28;20230;-72
2021/11/02 18:39:02;;;;;;;9.30;8.40;;;11.50;43.40;;;;;;10405644;28;20998;-72
2021/11/02 18:44:05;;;;;;;5.93;5.33;;;11.50;43.20;;;;;;10395742;28;20791;-72
2021/11/02 18:49:11;;;;;;;6.57;5.40;;;11.40;43.10;;;;;;10410275;28;20744;-72
2021/11/02 18:54:15;;;;;;;4.37;4.07;;;11.30;43.00;;;;;;10394359;28;20226;-72
2021/11/02 18:59:18;;;;;;;3.53;3.20;;;11.20;42.90;;;;;;10387752;28;20225;-72
2021/11/02 19:04:26;;;;;;;3.10;2.80;;;11.10;43.00;;;;;;10389272;28;20226;-71
2021/11/02 19:09:29;;;;;;;4.10;3.70;;;10.90;43.20;;;;;;10392491;28;22885;-72
2021/11/02 19:14:33;;;;;;;5.33;4.73;;;10.80;43.40;;;;;;10393918;28;20596;-72
2021/11/02 19:19:37;;;;;;;5.23;4.73;;;10.70;43.40;;;;;;10393387;28;20337;-71
2021/11/02 19:24:40;;;;;;;4.43;4.03;;;10.60;43.50;;;;;;10392658;28;20580;-72
2021/11/02 19:29:43;;;;;;;3.30;3.10;;;10.60;43.60;;;;;;10397997;28;20599;-71
2021/11/02 19:34:48;;;;;;;3.57;3.27;;;10.50;43.50;;;;;;10395809;28;20224;-71
2021/11/02 19:39:52;;;;;;;3.37;3.07;;;10.50;43.70;;;;;;10384236;28;20638;-72
2021/11/02 19:44:56;;;;;;;3.67;3.37;;;10.50;44.40;;;;;;10385098;28;20793;-72
2021/11/02 19:50:01;;;;;;;4.30;4.00;;;10.50;43.60;;;;;;10385954;28;20225;-72
2021/11/02 19:55:06;;;;;;;4.93;4.53;;;10.50;43.60;;;;;;10345851;28;20874;-71
2021/11/02 20:00:12;;;;;;;4.10;3.80;;;10.50;43.20;;;;;;10357211;28;20254;-71
2021/11/02 20:05:18;;;;;;;4.10;3.70;;;10.60;43.20;;;;;;10355599;28;20280;-71
2021/11/02 20:10:24;;;;;;;5.30;4.80;;;10.60;42.90;;;;;;10356047;28;20328;-72
2021/11/02 20:15:29;;;;;;;5.47;5.00;;;10.60;43.00;;;;;;10353135;28;20280;-72
2021/11/02 20:20:35;;;;;;;5.43;4.93;;;10.60;42.90;;;;;;10363768;28;20608;-72
2021/11/02 20:25:42;;;;;;;4.63;4.23;;;10.60;42.50;;;;;;10367173;28;20242;-72
2021/11/02 20:30:48;;;;;;;4.37;3.97;;;10.60;42.60;;;;;;10359634;28;20238;-72
2021/11/02 20:36:00;;;;;;;4.80;4.30;;;10.60;42.50;;;;;;10352350;28;20953;-72
2021/11/02 20:41:08;;;;;;;5.23;4.73;;;10.60;42.40;;;;;;10359248;28;20229;-71
2021/11/02 20:46:18;;;;;;;5.23;4.73;;;10.60;42.30;;;;;;10367654;28;20264;-68
2021/11/02 20:51:26;;;;;;;4.63;4.23;;;10.60;42.20;;;;;;10385020;28;20333;-68
2021/11/02 20:56:30;;;;;;;5.13;4.67;;;10.60;41.80;;;;;;10360913;28;20906;-68
2021/11/02 21:01:35;;;;;;;4.73;4.33;;;10.50;41.80;;;;;;10367406;28;20255;-68
2021/11/02 21:06:43;;;;;;;4.40;4.00;;;10.40;41.90;;;;;;10388493;28;20565;-68
2021/11/02 21:11:54;;;;;;;4.07;3.73;;;10.30;41.70;;;;;;10410508;28;20290;-68
2021/11/02 21:17:01;;;;;;;4.03;3.73;;;10.30;41.60;;;;;;10392171;28;20716;-68
2021/11/02 21:22:08;;;;;;;3.97;3.67;;;10.20;41.50;;;;;;10401636;28;20383;-68
2021/11/02 21:27:12;;;;;;;3.73;3.43;;;10.20;41.70;;;;;;10399002;28;20226;-68
2021/11/02 21:32:18;;;;;;;3.33;3.03;;;10.10;41.80;;;;;;10395236;28;20290;-68
2021/11/02 21:37:26;;;;;;;3.53;3.23;;;10.10;41.70;;;;;;10393204;28;21232;-68
2021/11/02 21:42:37;;;;;;;3.67;3.37;;;10.10;41.60;;;;;;10394808;28;20340;-68
2021/11/02 21:47:49;;;;;;;2.83;2.63;;;10.00;41.20;;;;;;10393298;28;20279;-68
2021/11/02 21:52:56;;;;;;;3.10;2.90;;;10.00;41.40;;;;;;10394472;28;20261;-68
2021/11/02 21:58:05;;;;;;;3.67;3.33;;;9.80;42.10;;;;;;10396759;28;20221;-68
2021/11/02 22:03:08;;;;;;;3.70;3.40;;;9.70;42.20;;;;;;10395343;28;20226;-68
2021/11/02 22:08:13;;;;;;;3.10;2.87;;;9.70;42.30;;;;;;10399973;28;20224;-67
2021/11/02 22:13:16;;;;;;;4.13;3.83;;;9.60;42.20;;;;;;10395813;28;20240;-67
2021/11/02 22:18:20;;;;;;;4.10;3.70;;;9.50;42.30;;;;;;10391705;28;20272;-67
2021/11/02 22:23:25;;;;;;;3.80;3.40;;;9.50;42.20;;;;;;10385195;28;20226;-67
2021/11/02 22:28:29;;;;;;;4.73;4.17;;;9.40;42.00;;;;;;10397432;28;20228;-67
2021/11/02 22:33:32;;;;;;;4.83;4.43;;;9.30;42.20;;;;;;10408314;28;20318;-67
2021/11/02 22:38:37;;;;;;;4.73;4.33;;;9.20;42.40;;;;;;10385943;28;20225;-67
2021/11/02 22:43:41;;;;;;;3.80;3.50;;;9.10;43.20;;;;;;10396375;28;20241;-67
2021/11/02 22:48:45;;;;;;;4.60;4.20;;;9.10;42.60;;;;;;10400329;28;20229;-67
2021/11/02 22:53:51;;;;;;;4.00;3.70;;;9.10;42.60;;;;;;10390079;28;20921;-66
2021/11/02 22:58:54;;;;;;;3.83;3.53;;;9.00;42.50;;;;;;10391493;28;20234;-67
2021/11/02 23:03:58;;;;;;;4.40;4.00;;;9.00;42.70;;;;;;10391801;28;20226;-66
2021/11/02 23:09:02;;;;;;;4.03;3.63;;;9.00;42.70;;;;;;10394796;28;20232;-67
2021/11/02 23:14:06;;;;;;;4.33;3.93;;;8.90;42.60;;;;;;10394833;28;20218;-67
2021/11/02 23:19:10;;;;;;;3.70;3.40;;;8.90;42.50;;;;;;10393067;28;20232;-67
2021/11/02 23:24:24;;;;;;;4.27;3.87;;;8.90;42.50;;;;;;10391659;28;20237;-67
2021/11/02 23:29:32;;;;;;;3.90;3.60;;;8.80;42.50;;;;;;10388708;28;20234;-67
2021/11/02 23:34:36;;;;;;;3.87;3.47;;;8.80;42.40;;;;;;10385354;28;20941;-67
2021/11/02 23:39:52;;;;;;;3.23;2.97;;;8.80;42.30;;;;;;10384906;28;20233;-67
2021/11/02 23:44:55;;;;;;;3.53;3.33;;;8.70;42.20;;;;;;10394582;28;20600;-67
2021/11/02 23:49:59;;;;;;;4.00;3.70;;;8.70;42.40;;;;;;10389454;28;20228;-67
2021/11/02 23:55:06;;;;;;;3.27;2.97;;;8.60;42.30;;;;;;10358433;28;20228;-67
